createdAt,value
2023-04-30T00:01:14.443Z,28.53
2023-04-30T00:03:44.704Z,29.48
2023-04-30T00:06:15.004Z,30.02
2023-04-30T00:08:45.225Z,29.15
2023-04-30T00:11:15.523Z,23.15
2023-04-30T00:13:48.306Z,26.15
2023-04-30T00:16:18.660Z,30.77
2023-04-30T00:18:48.956Z,26.38
2023-04-30T00:21:19.149Z,21.90
2023-04-30T00:23:49.294Z,30.98
2023-04-30T00:26:19.662Z,23.65
2023-04-30T00:28:55.382Z,34.65
2023-04-30T00:31:28.228Z,25.20
2023-04-30T00:33:58.421Z,31.23
2023-04-30T00:36:28.600Z,30.55
2023-04-30T00:38:58.794Z,23.67
2023-04-30T00:41:29.285Z,47.65
2023-04-30T00:44:02.500Z,21.85
2023-04-30T00:46:32.722Z,29.92
2023-04-30T00:49:05.239Z,32.42
2023-04-30T00:51:36.422Z,33.78
2023-04-30T00:54:06.992Z,33.35
2023-04-30T00:56:37.354Z,32.25
2023-04-30T00:59:10.099Z,29.33
2023-04-30T01:01:42.278Z,26.25
2023-04-30T01:04:12.523Z,29.20
2023-04-30T01:06:43.588Z,32.38
2023-04-30T01:09:14.008Z,40.78
2023-04-30T01:11:59.264Z,30.80
2023-04-30T01:14:44.722Z,24.98
2023-04-30T01:17:21.850Z,35.85
2023-04-30T01:19:52.355Z,29.83
2023-04-30T01:22:38.896Z,25.55
2023-04-30T01:25:29.006Z,31.95
2023-04-30T01:28:09.946Z,26.73
2023-04-30T01:30:45.135Z,30.80
2023-04-30T01:33:16.000Z,22.70
2023-04-30T01:36:16.552Z,32.33
2023-04-30T01:39:13.964Z,33.55
2023-04-30T01:41:56.621Z,34.10
2023-04-30T01:44:50.694Z,22.83
2023-04-30T01:47:31.221Z,31.15
2023-04-30T01:50:13.092Z,29.38
2023-04-30T01:52:46.095Z,29.58
2023-04-30T01:55:26.535Z,35.72
2023-04-30T01:58:01.065Z,28.48
2023-04-30T02:00:34.381Z,33.72
2023-04-30T02:03:04.849Z,26.15
2023-04-30T02:05:35.174Z,23.25
2023-04-30T02:08:05.408Z,23.95
2023-04-30T02:10:36.968Z,31.08
2023-04-30T02:13:07.244Z,28.73
2023-04-30T02:15:40.216Z,29.23
2023-04-30T02:18:10.477Z,29.77
2023-04-30T02:20:40.823Z,22.58
2023-04-30T02:23:11.115Z,25.77
2023-04-30T02:25:41.285Z,28.75
2023-04-30T02:28:11.491Z,24.27
2023-04-30T02:30:44.900Z,26.90
2023-04-30T02:33:15.325Z,28.60
2023-04-30T02:35:45.525Z,22.85
2023-04-30T02:38:15.905Z,25.70
2023-04-30T02:40:46.075Z,24.92
2023-04-30T02:43:16.325Z,28.23
2023-04-30T02:45:49.427Z,28.73
2023-04-30T02:48:19.771Z,22.52
2023-04-30T02:50:49.986Z,41.13
2023-04-30T02:53:20.311Z,32.38
2023-04-30T02:55:50.974Z,23.20
2023-04-30T02:58:21.586Z,21.67
2023-04-30T03:00:54.584Z,28.30
2023-04-30T03:03:25.039Z,26.92
2023-04-30T03:05:56.991Z,32.53
2023-04-30T03:08:27.204Z,27.23
2023-04-30T03:10:57.291Z,27.75
2023-04-30T03:13:28.729Z,35.72
2023-04-30T03:16:05.054Z,24.75
2023-04-30T03:18:35.824Z,30.88
2023-04-30T03:21:06.066Z,23.83
2023-04-30T03:23:36.203Z,26.58
2023-04-30T03:26:06.567Z,24.52
2023-04-30T03:28:36.736Z,26.40
2023-04-30T03:31:09.797Z,25.90
2023-04-30T03:33:40.042Z,32.30
2023-04-30T03:36:10.374Z,33.78
2023-04-30T03:38:40.687Z,25.13
2023-04-30T03:41:11.231Z,25.83
2023-04-30T03:43:41.467Z,36.28
2023-04-30T03:46:14.305Z,28.42
2023-04-30T03:48:44.799Z,32.92
2023-04-30T03:51:14.986Z,32.33
2023-04-30T03:53:45.180Z,29.67
2023-04-30T03:56:16.119Z,34.78
2023-04-30T03:58:46.329Z,28.13
2023-04-30T04:01:19.198Z,27.08
2023-04-30T04:03:49.498Z,30.83
2023-04-30T04:06:19.736Z,28.27
2023-04-30T04:08:50.294Z,29.88
2023-04-30T04:11:21.074Z,35.33
2023-04-30T04:13:51.342Z,33.53
2023-04-30T04:16:24.185Z,37.55
2023-04-30T04:18:54.498Z,30.15
2023-04-30T04:21:24.778Z,38.22
2023-04-30T04:23:55.095Z,46.80
2023-04-30T04:26:25.927Z,39.72
2023-04-30T04:28:56.237Z,43.70
2023-04-30T04:31:29.111Z,43.33
2023-04-30T04:34:00.699Z,43.30
2023-04-30T04:36:31.795Z,51.63
2023-04-30T04:39:02.469Z,40.83
2023-04-30T04:41:33.291Z,45.30
2023-04-30T04:44:04.788Z,47.38
2023-04-30T04:46:38.801Z,40.50
2023-04-30T04:51:39.998Z,40.75
2023-04-30T04:54:10.681Z,39.03
2023-04-30T04:56:41.044Z,42.10
2023-04-30T04:59:11.231Z,40.55
2023-04-30T05:01:44.998Z,43.25
2023-04-30T05:04:15.296Z,43.17
2023-04-30T05:06:45.759Z,40.50
2023-04-30T05:09:17.976Z,40.42
2023-04-30T05:11:49.243Z,46.67
2023-04-30T05:14:21.138Z,37.53
2023-04-30T05:16:54.102Z,41.08
2023-04-30T05:19:24.408Z,40.63
2023-04-30T05:21:54.918Z,46.92
2023-04-30T05:24:25.215Z,39.85
2023-04-30T05:26:55.324Z,36.20
2023-04-30T05:29:25.522Z,33.53
2023-04-30T05:31:58.426Z,34.97
2023-04-30T05:34:28.641Z,33.60
2023-04-30T05:36:58.841Z,30.13
2023-04-30T05:39:28.939Z,29.83
2023-04-30T05:41:59.063Z,31.45
2023-04-30T05:44:30.590Z,32.17
2023-04-30T05:47:03.428Z,30.30
2023-04-30T05:49:35.807Z,22.87
2023-04-30T05:52:06.786Z,32.23
2023-04-30T05:54:37.297Z,23.98
2023-04-30T05:57:07.457Z,23.30
2023-04-30T05:59:37.647Z,33.03
2023-04-30T06:02:10.549Z,20.23
2023-04-30T06:04:40.752Z,23.40
2023-04-30T06:07:10.922Z,19.30
2023-04-30T06:09:41.146Z,19.25
2023-04-30T06:12:11.407Z,17.02
2023-04-30T06:14:45.537Z,16.58
2023-04-30T06:17:18.362Z,18.23
2023-04-30T06:19:48.528Z,17.13
2023-04-30T06:22:18.726Z,21.98
2023-04-30T06:24:48.948Z,17.23
2023-04-30T06:27:19.068Z,14.32
2023-04-30T06:29:49.272Z,20.98
2023-04-30T06:32:22.092Z,14.68
2023-04-30T06:34:52.419Z,14.63
2023-04-30T06:37:22.515Z,14.57
2023-04-30T06:39:53.391Z,15.32
2023-04-30T06:42:24.376Z,13.65
2023-04-30T06:44:55.702Z,15.60
2023-04-30T06:47:28.496Z,12.80
2023-04-30T06:49:58.667Z,17.63
2023-04-30T06:52:28.950Z,21.05
2023-04-30T06:54:59.180Z,12.88
2023-04-30T06:57:29.367Z,17.80
2023-04-30T07:00:00.844Z,13.75
2023-04-30T07:02:33.855Z,14.45
2023-04-30T07:05:04.117Z,12.32
2023-04-30T07:07:35.106Z,13.45
2023-04-30T07:10:05.366Z,11.57
2023-04-30T07:12:35.709Z,14.95
2023-04-30T07:15:06.232Z,13.48
2023-04-30T07:17:42.062Z,12.38
2023-04-30T07:20:14.873Z,12.82
2023-04-30T07:22:46.269Z,16.23
2023-04-30T07:25:16.871Z,14.55
2023-04-30T07:27:47.248Z,21.88
2023-04-30T07:30:17.542Z,12.90
2023-04-30T07:32:51.124Z,12.00
2023-04-30T07:35:22.028Z,18.60
2023-04-30T07:37:52.205Z,12.02
2023-04-30T07:40:34.892Z,14.27
2023-04-30T07:43:08.403Z,15.52
2023-04-30T07:45:39.571Z,10.70
2023-04-30T07:48:12.441Z,12.40
2023-04-30T07:50:42.643Z,11.00
2023-04-30T07:53:12.896Z,21.13
2023-04-30T07:55:43.299Z,14.18
2023-04-30T07:58:13.601Z,14.63
2023-04-30T08:00:44.234Z,11.07
2023-04-30T08:03:17.242Z,9.52
2023-04-30T08:05:47.532Z,9.88
2023-04-30T08:08:17.784Z,16.02
2023-04-30T08:10:47.975Z,13.90
2023-04-30T08:13:19.453Z,10.90
2023-04-30T08:15:49.827Z,9.43
2023-04-30T08:18:22.638Z,12.45
2023-04-30T08:20:52.934Z,9.30
2023-04-30T08:23:23.201Z,10.05
2023-04-30T08:25:54.814Z,10.68
2023-04-30T08:28:25.036Z,18.00
2023-04-30T08:30:55.242Z,8.80
2023-04-30T08:33:30.475Z,10.47
2023-04-30T08:36:00.679Z,9.23
2023-04-30T08:38:31.686Z,7.90
2023-04-30T08:41:12.057Z,9.82
2023-04-30T08:43:42.777Z,7.40
2023-04-30T08:46:14.546Z,17.10
2023-04-30T08:48:48.637Z,11.70
2023-04-30T08:51:18.919Z,7.63
2023-04-30T08:53:51.050Z,5.97
2023-04-30T08:56:23.127Z,9.90
2023-04-30T08:58:54.978Z,8.80
2023-04-30T09:01:27.141Z,9.20
2023-04-30T09:04:03.298Z,9.00
2023-04-30T09:06:34.422Z,4.63
2023-04-30T09:09:13.448Z,7.13
2023-04-30T09:11:43.799Z,6.18
2023-04-30T09:14:14.276Z,5.88
2023-04-30T09:16:52.969Z,5.25
2023-04-30T09:19:30.466Z,9.02
2023-04-30T09:22:01.111Z,5.32
2023-04-30T09:24:49.673Z,5.95
2023-04-30T09:27:21.301Z,8.68
2023-04-30T09:29:52.192Z,8.70
2023-04-30T09:32:22.714Z,5.10
2023-04-30T09:34:55.590Z,6.63
2023-04-30T09:37:26.031Z,5.60
2023-04-30T09:40:00.882Z,6.13
2023-04-30T09:42:31.207Z,9.35
2023-04-30T09:45:01.595Z,7.32
2023-04-30T09:47:34.120Z,5.30
2023-04-30T09:50:07.988Z,6.38
2023-04-30T09:52:38.587Z,10.77
2023-04-30T09:55:10.271Z,7.57
2023-04-30T09:57:41.046Z,5.03
2023-04-30T10:00:13.110Z,6.97
2023-04-30T10:02:44.254Z,5.25
2023-04-30T10:05:17.220Z,5.70
2023-04-30T10:07:48.000Z,4.38
2023-04-30T10:10:18.501Z,4.78
2023-04-30T10:12:53.440Z,4.35
2023-04-30T10:15:28.633Z,8.20
2023-04-30T10:18:05.192Z,5.30
2023-04-30T10:20:39.682Z,3.75
2023-04-30T10:23:13.213Z,4.80
2023-04-30T10:28:14.651Z,4.72
2023-04-30T10:30:46.119Z,4.63
2023-04-30T10:33:27.764Z,8.52
2023-04-30T10:36:04.551Z,5.40
2023-04-30T10:38:36.411Z,5.75
2023-04-30T10:41:10.859Z,4.93
2023-04-30T10:43:41.415Z,7.30
2023-04-30T10:46:11.887Z,5.03
2023-04-30T10:48:42.205Z,6.13
2023-04-30T10:51:15.027Z,11.40
2023-04-30T10:53:47.384Z,3.90
2023-04-30T10:56:17.770Z,5.75
2023-04-30T10:58:48.107Z,4.10
2023-04-30T11:01:19.663Z,4.40
2023-04-30T11:04:08.789Z,5.97
2023-04-30T11:07:05.254Z,12.90
2023-04-30T11:09:48.101Z,3.20
2023-04-30T11:12:28.857Z,5.23
2023-04-30T11:15:09.280Z,3.67
2023-04-30T11:17:41.305Z,8.90
2023-04-30T11:20:18.177Z,6.47
2023-04-30T11:22:51.325Z,4.15
2023-04-30T11:25:22.704Z,5.10
2023-04-30T11:27:54.093Z,3.42
2023-04-30T11:30:25.813Z,6.05
2023-04-30T11:32:56.171Z,6.47
2023-04-30T11:35:26.596Z,5.78
2023-04-30T11:38:01.165Z,3.92
2023-04-30T11:40:38.153Z,5.28
2023-04-30T11:43:08.630Z,6.03
2023-04-30T11:45:39.572Z,9.27
2023-04-30T11:48:09.816Z,4.00
2023-04-30T11:50:45.987Z,3.72
2023-04-30T11:53:18.863Z,3.67
2023-04-30T11:55:49.026Z,5.43
2023-04-30T11:58:19.199Z,4.18
2023-04-30T12:00:50.960Z,5.00
2023-04-30T12:03:21.377Z,5.10
2023-04-30T12:05:51.648Z,4.60
2023-04-30T12:08:24.505Z,6.07
2023-04-30T12:10:54.696Z,5.35
2023-04-30T12:13:24.880Z,2.85
2023-04-30T12:16:04.424Z,3.67
2023-04-30T12:18:36.643Z,4.60
2023-04-30T12:21:07.659Z,2.38
2023-04-30T12:23:40.614Z,5.80
2023-04-30T12:26:10.914Z,4.38
2023-04-30T12:28:41.179Z,3.63
2023-04-30T12:31:12.195Z,7.63
2023-04-30T12:33:42.993Z,2.60
2023-04-30T12:36:13.964Z,3.40
2023-04-30T12:38:49.895Z,4.13
2023-04-30T12:41:21.385Z,2.05
2023-04-30T12:43:52.240Z,6.55
2023-04-30T12:46:30.701Z,1.73
2023-04-30T12:49:01.118Z,7.20
2023-04-30T12:51:31.339Z,2.88
2023-04-30T12:54:04.185Z,2.85
2023-04-30T12:56:34.352Z,6.03
2023-04-30T12:59:04.509Z,5.32
2023-04-30T13:01:34.761Z,5.07
2023-04-30T13:04:05.201Z,2.08
2023-04-30T13:06:35.795Z,2.65
2023-04-30T13:09:08.800Z,1.70
2023-04-30T13:11:38.912Z,2.50
2023-04-30T13:14:10.669Z,6.30
2023-04-30T13:16:40.921Z,2.85
2023-04-30T13:19:11.655Z,2.08
2023-04-30T13:21:43.846Z,1.88
2023-04-30T13:24:17.994Z,1.58
2023-04-30T13:26:48.394Z,2.47
2023-04-30T13:29:21.057Z,3.85
2023-04-30T13:31:51.884Z,1.30
2023-04-30T13:34:22.051Z,1.63
2023-04-30T13:36:52.844Z,7.05
2023-04-30T13:39:25.609Z,3.60
2023-04-30T13:41:55.782Z,4.55
2023-04-30T13:44:25.947Z,1.65
2023-04-30T13:46:56.173Z,1.58
2023-04-30T13:49:26.446Z,2.08
2023-04-30T13:51:56.576Z,20.95
2023-04-30T13:54:29.365Z,2.40
2023-04-30T13:56:59.917Z,6.20
2023-04-30T13:59:30.077Z,4.45
2023-04-30T14:02:00.257Z,7.95
2023-04-30T14:04:31.248Z,2.25
2023-04-30T14:07:01.689Z,2.05
2023-04-30T14:09:36.716Z,7.13
2023-04-30T14:12:12.734Z,6.35
2023-04-30T14:14:42.990Z,0.80
2023-04-30T14:17:13.313Z,1.70
2023-04-30T14:19:43.669Z,1.20
2023-04-30T14:22:13.867Z,2.72
2023-04-30T14:24:46.846Z,2.20
2023-04-30T14:27:17.082Z,4.53
2023-04-30T14:29:47.403Z,6.55
2023-04-30T14:32:17.608Z,2.97
2023-04-30T14:34:47.809Z,2.55
2023-04-30T14:37:18.155Z,4.38
2023-04-30T14:39:50.882Z,2.13
2023-04-30T14:42:21.060Z,2.95
2023-04-30T14:44:52.090Z,1.55
2023-04-30T14:47:27.481Z,7.82
2023-04-30T14:49:59.145Z,2.22
2023-04-30T14:52:29.412Z,14.65
2023-04-30T14:55:03.550Z,3.25
2023-04-30T14:57:34.640Z,7.65
2023-04-30T15:00:04.964Z,3.20
2023-04-30T15:02:35.243Z,2.28
2023-04-30T15:05:07.830Z,0.95
2023-04-30T15:07:38.150Z,2.55
2023-04-30T15:10:12.504Z,5.57
2023-04-30T15:12:42.690Z,3.13
2023-04-30T15:15:17.387Z,8.45
2023-04-30T15:17:49.170Z,9.90
2023-04-30T15:20:19.392Z,9.90
2023-04-30T15:22:49.614Z,1.83
2023-04-30T15:25:22.390Z,1.40
2023-04-30T15:27:54.131Z,3.45
2023-04-30T15:30:25.795Z,5.25
2023-04-30T15:32:56.056Z,5.47
2023-04-30T15:35:26.805Z,4.38
2023-04-30T15:37:57.027Z,1.35
2023-04-30T15:40:29.869Z,13.10
2023-04-30T15:43:00.132Z,1.17
2023-04-30T15:45:32.597Z,4.03
2023-04-30T15:48:05.840Z,2.97
2023-04-30T15:50:36.269Z,4.32
2023-04-30T15:53:06.515Z,7.47
2023-04-30T15:55:39.484Z,1.83
2023-04-30T15:58:09.661Z,7.57
2023-04-30T16:00:41.215Z,14.40
2023-04-30T16:03:11.962Z,2.58
2023-04-30T16:05:42.917Z,6.13
2023-04-30T16:08:13.723Z,1.85
2023-04-30T16:10:46.520Z,2.05
2023-04-30T16:13:16.795Z,2.00
2023-04-30T16:15:47.797Z,6.40
2023-04-30T16:18:18.067Z,1.30
2023-04-30T16:20:52.126Z,7.40
2023-04-30T16:23:22.713Z,2.22
2023-04-30T16:25:56.686Z,2.55
2023-04-30T16:28:28.570Z,10.77
2023-04-30T16:30:59.168Z,9.57
2023-04-30T16:33:29.453Z,1.88
2023-04-30T16:35:59.787Z,1.55
2023-04-30T16:38:32.919Z,10.73
2023-04-30T16:41:05.744Z,12.45
2023-04-30T16:43:35.960Z,16.88
2023-04-30T16:46:06.267Z,6.70
2023-04-30T16:48:36.525Z,5.20
2023-04-30T16:51:07.885Z,2.75
2023-04-30T16:53:38.168Z,5.20
2023-04-30T16:56:11.310Z,3.50
2023-04-30T16:58:41.540Z,6.45
2023-04-30T17:01:14.096Z,2.03
2023-04-30T17:03:44.478Z,13.00
2023-04-30T17:06:14.821Z,11.43
2023-04-30T17:08:45.121Z,8.65
2023-04-30T17:11:20.829Z,3.83
2023-04-30T17:13:51.056Z,6.32
2023-04-30T17:16:21.414Z,3.60
2023-04-30T17:18:51.822Z,4.13
2023-04-30T17:21:22.257Z,13.07
2023-04-30T17:23:52.525Z,10.73
2023-04-30T17:26:25.562Z,6.43
2023-04-30T17:28:55.803Z,7.75
2023-04-30T17:31:27.425Z,3.08
2023-04-30T17:33:57.764Z,15.45
2023-04-30T17:36:31.493Z,10.93
2023-04-30T17:39:05.755Z,11.73
2023-04-30T17:41:39.076Z,13.77
2023-04-30T17:44:09.447Z,9.70
2023-04-30T17:46:39.874Z,4.40
2023-04-30T17:49:10.468Z,8.68
2023-04-30T17:51:42.921Z,5.65
2023-04-30T17:54:13.088Z,5.07
2023-04-30T17:56:45.885Z,12.50
2023-04-30T17:59:16.004Z,4.13
2023-04-30T18:01:47.808Z,3.65
2023-04-30T18:04:20.916Z,5.68
2023-04-30T18:06:51.684Z,6.15
2023-04-30T18:09:21.953Z,6.85
2023-04-30T18:11:56.361Z,6.07
2023-04-30T18:14:27.898Z,3.10
2023-04-30T18:16:58.392Z,2.97
2023-04-30T18:19:28.522Z,6.30
2023-04-30T18:21:58.649Z,6.57
2023-04-30T18:24:29.155Z,8.98
2023-04-30T18:27:01.938Z,6.50
2023-04-30T18:29:32.146Z,4.13
2023-04-30T18:32:02.493Z,5.50
2023-04-30T18:34:32.825Z,4.68
2023-04-30T18:37:03.120Z,5.10
2023-04-30T18:39:33.978Z,13.25
2023-04-30T18:42:07.041Z,12.98
2023-04-30T18:44:37.194Z,5.90
2023-04-30T18:47:07.794Z,7.50
2023-04-30T18:49:38.591Z,9.45
2023-04-30T18:52:09.267Z,8.65
2023-04-30T18:54:39.708Z,9.82
2023-04-30T18:57:15.096Z,8.95
2023-04-30T18:59:45.456Z,5.95
2023-04-30T19:02:15.880Z,9.10
2023-04-30T19:04:46.037Z,8.50
2023-04-30T19:07:16.480Z,10.27
2023-04-30T19:09:48.665Z,5.95
2023-04-30T19:12:21.482Z,7.80
2023-04-30T19:14:51.852Z,5.57
2023-04-30T19:17:22.049Z,6.53
2023-04-30T19:19:53.293Z,6.22
2023-04-30T19:22:24.060Z,4.65
2023-04-30T19:24:54.768Z,4.47
2023-04-30T19:27:27.575Z,11.65
2023-04-30T19:29:57.953Z,5.73
2023-04-30T19:32:30.166Z,4.85
2023-04-30T19:35:00.329Z,7.38
2023-04-30T19:37:31.283Z,9.18
2023-04-30T19:40:01.430Z,7.75
2023-04-30T19:42:34.383Z,14.05
2023-04-30T19:45:06.308Z,10.07
2023-04-30T19:47:36.767Z,9.10
2023-04-30T19:50:07.482Z,10.50
2023-04-30T19:52:37.833Z,10.35
2023-04-30T19:55:08.647Z,16.05
2023-04-30T19:57:41.424Z,16.95
2023-04-30T20:00:13.967Z,11.10
2023-04-30T20:02:45.099Z,21.70
2023-04-30T20:05:15.855Z,11.60
2023-04-30T20:07:46.187Z,15.82
2023-04-30T20:10:16.400Z,17.35
2023-04-30T20:12:49.245Z,9.65
2023-04-30T20:15:21.292Z,19.35
2023-04-30T20:17:52.020Z,22.75
2023-04-30T20:20:24.075Z,12.15
2023-04-30T20:22:56.091Z,19.05
2023-04-30T20:25:28.513Z,15.60
2023-04-30T20:28:01.289Z,15.60
2023-04-30T20:30:33.272Z,9.10
2023-04-30T20:33:04.128Z,13.25
2023-04-30T20:35:34.529Z,15.18
2023-04-30T20:38:04.805Z,7.22
2023-04-30T20:40:35.243Z,19.90
2023-04-30T20:43:08.639Z,13.32
2023-04-30T20:45:41.560Z,17.83
2023-04-30T20:48:11.801Z,12.40
2023-04-30T20:50:44.498Z,15.85
2023-04-30T20:53:15.373Z,14.73
2023-04-30T20:55:46.605Z,8.98
2023-04-30T20:58:19.410Z,13.90
2023-04-30T21:00:49.887Z,11.00
2023-04-30T21:03:20.355Z,10.30
2023-04-30T21:05:50.595Z,10.35
2023-04-30T21:08:20.812Z,9.57
2023-04-30T21:10:50.944Z,14.80
2023-04-30T21:13:23.706Z,17.35
2023-04-30T21:15:56.771Z,9.63
2023-04-30T21:18:27.889Z,13.88
2023-04-30T21:21:05.617Z,8.90
2023-04-30T21:23:38.194Z,12.43
2023-04-30T21:26:08.537Z,12.07
2023-04-30T21:28:41.300Z,15.40
2023-04-30T21:31:12.410Z,16.07
2023-04-30T21:33:42.903Z,11.32
2023-04-30T21:36:13.241Z,24.63
2023-04-30T21:38:43.395Z,14.35
2023-04-30T21:41:17.086Z,10.48
2023-04-30T21:46:19.803Z,15.70
2023-04-30T21:48:50.133Z,15.40
2023-04-30T21:51:20.569Z,9.55
2023-04-30T21:53:51.028Z,9.93
2023-04-30T21:56:21.863Z,7.80
2023-04-30T21:58:54.672Z,10.05
2023-04-30T22:01:27.798Z,7.00
2023-04-30T22:03:58.223Z,11.27
2023-04-30T22:06:28.795Z,8.93
2023-04-30T22:08:59.508Z,11.90
2023-04-30T22:11:32.668Z,17.20
2023-04-30T22:14:05.460Z,13.57
2023-04-30T22:16:36.044Z,9.27
2023-04-30T22:19:06.312Z,9.55
2023-04-30T22:21:36.533Z,8.63
2023-04-30T22:24:07.229Z,9.95
2023-04-30T22:26:37.381Z,7.78
2023-04-30T22:29:10.532Z,8.63
2023-04-30T22:31:40.716Z,12.80
2023-04-30T22:34:12.733Z,8.57
2023-04-30T22:36:43.012Z,10.30
2023-04-30T22:39:13.601Z,9.90
2023-04-30T22:41:46.614Z,10.32
2023-04-30T22:44:20.675Z,14.48
2023-04-30T22:46:51.421Z,9.70
2023-04-30T22:49:31.254Z,9.23
2023-04-30T22:52:02.841Z,9.80
2023-04-30T22:54:33.217Z,14.38
2023-04-30T22:57:03.417Z,12.52
2023-04-30T22:59:36.295Z,6.00
2023-04-30T23:02:06.494Z,11.13
2023-04-30T23:04:36.974Z,7.07
2023-04-30T23:07:07.173Z,9.88
2023-04-30T23:09:37.291Z,12.00
2023-04-30T23:12:07.877Z,9.63
2023-04-30T23:14:40.682Z,14.48
2023-04-30T23:17:10.951Z,8.00
2023-04-30T23:19:41.223Z,16.25
2023-04-30T23:22:11.373Z,6.15
2023-04-30T23:24:41.485Z,6.97
2023-04-30T23:27:11.707Z,10.55
2023-04-30T23:29:44.767Z,7.78
2023-04-30T23:32:14.970Z,8.95
2023-04-30T23:34:45.136Z,8.27
2023-04-30T23:37:15.282Z,11.75
2023-04-30T23:39:45.519Z,10.05
2023-04-30T23:42:15.904Z,14.18
2023-04-30T23:44:48.811Z,11.57
2023-04-30T23:47:18.963Z,9.48
2023-04-30T23:49:49.110Z,10.63
2023-04-30T23:52:19.284Z,13.93
2023-04-30T23:54:49.416Z,6.32
2023-04-30T23:57:19.928Z,7.53
2023-04-30T23:59:52.657Z,11.63
